createdAt,value
2023-05-24T00:00:32.876Z,88.00
2023-05-24T00:03:00.499Z,88.58
2023-05-24T00:05:31.296Z,88.89
2023-05-24T00:07:59.497Z,88.93
2023-05-24T00:10:26.950Z,88.85
2023-05-24T00:12:54.652Z,88.56
2023-05-24T00:15:22.117Z,88.42
2023-05-24T00:17:49.699Z,88.35
2023-05-24T00:20:17.395Z,88.08
2023-05-24T00:22:45.076Z,88.24
2023-05-24T00:25:12.669Z,88.24
2023-05-24T00:27:40.371Z,88.20
2023-05-24T00:30:08.153Z,87.86
2023-05-24T00:32:35.800Z,87.86
2023-05-24T00:35:04.689Z,88.34
2023-05-24T00:37:32.604Z,88.52
2023-05-24T00:40:00.251Z,88.57
2023-05-24T00:42:27.927Z,88.45
2023-05-24T00:44:55.546Z,88.52
2023-05-24T00:47:23.110Z,88.87
2023-05-24T00:49:50.739Z,88.87
2023-05-24T00:52:18.295Z,88.68
2023-05-24T00:54:45.924Z,87.97
2023-05-24T00:57:16.319Z,87.32
2023-05-24T00:59:43.761Z,87.77
2023-05-24T01:02:11.438Z,87.62
2023-05-24T01:04:38.873Z,87.48
2023-05-24T01:07:13.437Z,87.47
2023-05-24T01:09:56.703Z,87.59
2023-05-24T01:12:37.094Z,87.69
2023-05-24T01:15:10.723Z,87.48
2023-05-24T01:18:01.727Z,87.50
2023-05-24T01:20:30.828Z,88.26
2023-05-24T01:23:06.556Z,87.74
2023-05-24T01:25:46.585Z,87.56
2023-05-24T01:28:14.078Z,87.79
2023-05-24T01:30:41.845Z,88.25
2023-05-24T01:33:09.598Z,88.34
2023-05-24T01:35:40.548Z,88.35
2023-05-24T01:38:08.595Z,88.33
2023-05-24T01:40:36.115Z,88.43
2023-05-24T01:43:27.554Z,88.40
2023-05-24T01:45:56.410Z,89.42
2023-05-24T01:48:48.910Z,89.91
2023-05-24T01:51:18.784Z,90.29
2023-05-24T01:53:47.720Z,90.46
2023-05-24T01:56:17.430Z,90.03
2023-05-24T01:58:46.084Z,89.75
2023-05-24T02:01:14.445Z,89.78
2023-05-24T02:03:42.032Z,90.25
2023-05-24T02:06:10.949Z,90.79
2023-05-24T02:08:40.529Z,91.01
2023-05-24T02:11:08.168Z,90.80
2023-05-24T02:13:35.605Z,90.03
2023-05-24T02:16:05.277Z,89.63
2023-05-24T02:18:35.074Z,89.60
2023-05-24T02:21:02.861Z,89.77
2023-05-24T02:23:30.447Z,89.85
2023-05-24T02:26:00.292Z,89.77
2023-05-24T02:28:28.475Z,90.01
2023-05-24T02:30:55.975Z,90.13
2023-05-24T02:33:25.754Z,90.57
2023-05-24T02:35:53.267Z,90.87
2023-05-24T02:38:20.848Z,91.31
2023-05-24T02:40:48.487Z,91.42
2023-05-24T02:43:16.154Z,91.42
2023-05-24T02:45:43.632Z,91.37
2023-05-24T02:48:12.118Z,91.44
2023-05-24T02:50:39.635Z,92.01
2023-05-24T02:53:07.327Z,91.91
2023-05-24T02:55:34.904Z,92.07
2023-05-24T02:58:03.067Z,92.31
2023-05-24T03:00:31.200Z,91.95
2023-05-24T03:03:24.736Z,91.75
2023-05-24T03:05:52.510Z,92.04
2023-05-24T03:08:20.032Z,92.38
2023-05-24T03:10:47.588Z,91.93
2023-05-24T03:13:15.246Z,92.19
2023-05-24T03:15:43.127Z,91.94
2023-05-24T03:18:10.625Z,91.69
2023-05-24T03:20:39.568Z,91.81
2023-05-24T03:23:09.713Z,91.67
2023-05-24T03:25:37.278Z,91.38
2023-05-24T03:28:04.981Z,91.68
2023-05-24T03:30:33.256Z,91.34
2023-05-24T03:33:01.323Z,91.68
2023-05-24T03:35:29.155Z,91.89
2023-05-24T03:37:56.842Z,92.04
2023-05-24T03:40:25.918Z,92.37
2023-05-24T03:42:58.257Z,92.02
2023-05-24T03:45:42.934Z,91.88
2023-05-24T03:48:10.559Z,91.68
2023-05-24T03:50:38.110Z,91.62
2023-05-24T03:53:05.621Z,91.31
2023-05-24T03:55:33.104Z,91.35
2023-05-24T03:58:01.062Z,91.15
2023-05-24T04:00:29.030Z,90.85
2023-05-24T04:02:57.061Z,90.49
2023-05-24T04:05:29.990Z,89.99
2023-05-24T04:07:57.587Z,88.82
2023-05-24T04:10:25.145Z,88.39
2023-05-24T04:12:52.849Z,87.21
2023-05-24T04:15:21.389Z,85.86
2023-05-24T04:17:55.115Z,84.88
2023-05-24T04:20:25.725Z,84.29
2023-05-24T04:22:54.166Z,83.90
2023-05-24T04:25:22.193Z,83.64
2023-05-24T04:27:50.486Z,83.90
2023-05-24T04:30:18.015Z,83.40
2023-05-24T04:32:45.748Z,83.14
2023-05-24T04:35:14.216Z,83.26
2023-05-24T04:37:41.807Z,83.18
2023-05-24T04:40:10.631Z,82.63
2023-05-24T04:42:38.497Z,82.22
2023-05-24T04:45:07.192Z,81.81
2023-05-24T04:47:34.753Z,81.37
2023-05-24T04:50:02.387Z,80.74
2023-05-24T04:52:30.669Z,80.35
2023-05-24T04:54:58.331Z,79.49
2023-05-24T04:57:25.847Z,79.03
2023-05-24T04:59:53.380Z,78.37
2023-05-24T05:02:22.536Z,77.60
2023-05-24T05:04:50.138Z,76.57
2023-05-24T05:07:17.932Z,75.84
2023-05-24T05:09:45.451Z,75.93
2023-05-24T05:12:12.980Z,75.22
2023-05-24T05:14:40.590Z,74.30
2023-05-24T05:17:08.157Z,74.02
2023-05-24T05:19:35.914Z,73.14
2023-05-24T05:22:03.371Z,73.02
2023-05-24T05:24:31.677Z,72.62
2023-05-24T05:26:59.204Z,72.20
2023-05-24T05:29:26.733Z,71.70
2023-05-24T05:31:54.265Z,70.66
2023-05-24T05:34:21.934Z,70.69
2023-05-24T05:36:49.503Z,69.86
2023-05-24T05:39:17.089Z,69.42
2023-05-24T05:41:46.587Z,68.70
2023-05-24T05:44:17.150Z,68.04
2023-05-24T05:46:46.474Z,67.56
2023-05-24T05:49:15.527Z,66.96
2023-05-24T05:51:42.998Z,66.34
2023-05-24T05:54:14.608Z,65.82
2023-05-24T05:56:48.864Z,65.60
2023-05-24T05:59:16.510Z,64.83
2023-05-24T06:01:45.796Z,64.40
2023-05-24T06:04:14.375Z,63.70
2023-05-24T06:06:42.232Z,63.62
2023-05-24T06:09:11.422Z,62.89
2023-05-24T06:11:56.775Z,62.57
2023-05-24T06:14:27.657Z,62.23
2023-05-24T06:16:56.294Z,62.29
2023-05-24T06:19:25.364Z,61.62
2023-05-24T06:21:53.114Z,61.47
2023-05-24T06:24:21.904Z,61.97
2023-05-24T06:26:50.990Z,61.45
2023-05-24T06:29:22.962Z,61.26
2023-05-24T06:31:51.573Z,60.94
2023-05-24T06:34:21.598Z,60.76
2023-05-24T06:36:51.609Z,60.64
2023-05-24T06:39:19.615Z,60.97
2023-05-24T06:41:47.540Z,60.81
2023-05-24T06:44:16.581Z,61.01
2023-05-24T06:46:44.541Z,60.63
2023-05-24T06:49:12.733Z,60.26
2023-05-24T06:51:48.604Z,60.98
2023-05-24T06:54:16.892Z,60.76
2023-05-24T06:56:58.984Z,60.98
2023-05-24T06:59:27.802Z,60.18
2023-05-24T07:01:59.983Z,60.71
2023-05-24T07:04:29.456Z,60.02
2023-05-24T07:06:58.079Z,59.12
2023-05-24T07:09:25.700Z,58.58
2023-05-24T07:11:56.382Z,58.35
2023-05-24T07:14:31.888Z,58.43
2023-05-24T07:17:00.067Z,58.32
2023-05-24T07:19:36.201Z,57.65
2023-05-24T07:22:07.557Z,56.73
2023-05-24T07:24:36.616Z,55.75
2023-05-24T07:27:07.527Z,55.41
2023-05-24T07:29:35.150Z,55.25
2023-05-24T07:32:02.953Z,54.95
2023-05-24T07:34:31.862Z,55.72
2023-05-24T07:37:00.893Z,56.42
2023-05-24T07:39:31.259Z,56.79
2023-05-24T07:41:58.831Z,57.07
2023-05-24T07:44:26.449Z,56.58
2023-05-24T07:46:55.834Z,56.97
2023-05-24T07:49:24.119Z,57.06
2023-05-24T07:51:52.296Z,56.37
2023-05-24T07:54:20.245Z,55.85
2023-05-24T07:56:47.969Z,55.31
2023-05-24T07:59:19.346Z,54.14
2023-05-24T08:01:48.574Z,53.72
2023-05-24T08:04:16.434Z,53.75
2023-05-24T08:06:44.074Z,53.48
2023-05-24T08:09:12.461Z,53.56
2023-05-24T08:11:40.097Z,54.06
2023-05-24T08:14:07.704Z,54.28
2023-05-24T08:16:35.703Z,53.23
2023-05-24T08:19:03.376Z,52.35
2023-05-24T08:21:31.989Z,52.77
2023-05-24T08:24:00.650Z,52.55
2023-05-24T08:26:28.275Z,51.81
2023-05-24T08:28:55.743Z,51.66
2023-05-24T08:31:23.422Z,51.13
2023-05-24T08:33:51.493Z,51.32
2023-05-24T08:36:19.213Z,51.42
2023-05-24T08:38:46.648Z,50.41
2023-05-24T08:41:14.315Z,49.62
2023-05-24T08:43:42.489Z,49.80
2023-05-24T08:46:10.080Z,49.80
2023-05-24T08:48:44.771Z,49.64
2023-05-24T08:51:14.649Z,49.72
2023-05-24T08:53:42.581Z,49.69
2023-05-24T08:56:10.752Z,49.31
2023-05-24T08:58:41.735Z,49.31
2023-05-24T09:01:10.862Z,49.43
2023-05-24T09:03:38.817Z,50.04
2023-05-24T09:06:07.428Z,50.16
2023-05-24T09:08:35.627Z,50.39
2023-05-24T09:11:04.712Z,50.74
2023-05-24T09:13:35.241Z,51.27
2023-05-24T09:16:07.178Z,52.02
2023-05-24T09:18:34.724Z,51.93
2023-05-24T09:21:02.269Z,52.80
2023-05-24T09:23:29.886Z,53.35
2023-05-24T09:26:01.788Z,53.30
2023-05-24T09:42:30.433Z,55.29
2023-05-24T09:45:12.310Z,55.67
2023-05-24T09:47:42.167Z,55.76
2023-05-24T09:50:17.693Z,56.18
2023-05-24T09:52:45.952Z,56.40
2023-05-24T09:55:18.155Z,56.16
2023-05-24T09:57:50.630Z,56.17
2023-05-24T10:00:25.280Z,56.23
2023-05-24T10:03:07.564Z,56.69
2023-05-24T10:05:36.070Z,57.00
2023-05-24T10:08:05.328Z,55.48
2023-05-24T10:10:35.894Z,55.49
2023-05-24T10:13:03.694Z,55.85
2023-05-24T10:15:31.481Z,55.56
2023-05-24T10:18:00.855Z,55.25
2023-05-24T10:20:28.694Z,54.89
2023-05-24T10:23:00.794Z,54.45
2023-05-24T10:25:32.972Z,54.78
2023-05-24T10:28:07.493Z,54.39
2023-05-24T10:30:40.633Z,54.45
2023-05-24T10:33:08.646Z,54.86
2023-05-24T10:35:38.422Z,55.10
2023-05-24T10:38:09.013Z,54.95
2023-05-24T10:40:44.838Z,55.11
2023-05-24T10:43:13.812Z,55.65
2023-05-24T10:45:48.878Z,55.27
2023-05-24T10:48:17.250Z,54.69
2023-05-24T10:50:45.292Z,53.93
2023-05-24T10:53:34.633Z,53.49
2023-05-24T10:56:28.137Z,53.88
2023-05-24T10:59:01.064Z,54.43
2023-05-24T11:01:31.249Z,55.35
2023-05-24T11:04:17.123Z,55.78
2023-05-24T11:06:52.561Z,56.35
2023-05-24T11:09:20.514Z,56.50
2023-05-24T11:11:50.235Z,56.63
2023-05-24T11:14:28.518Z,57.24
2023-05-24T11:16:56.968Z,57.99
2023-05-24T11:19:48.658Z,58.41
2023-05-24T11:22:16.730Z,58.37
2023-05-24T11:24:47.531Z,57.68
2023-05-24T11:27:15.393Z,58.39
2023-05-24T11:29:48.082Z,58.27
2023-05-24T11:32:18.987Z,57.62
2023-05-24T11:34:52.498Z,57.23
2023-05-24T11:37:38.571Z,57.17
2023-05-24T11:40:16.503Z,56.54
2023-05-24T11:42:44.822Z,55.62
2023-05-24T11:45:14.154Z,55.70
2023-05-24T11:47:41.957Z,55.24
2023-05-24T11:50:10.396Z,54.66
2023-05-24T11:52:44.326Z,54.41
2023-05-24T11:55:16.354Z,54.56
2023-05-24T11:57:48.085Z,55.10
2023-05-24T12:00:38.613Z,55.25
2023-05-24T12:03:11.607Z,55.31
2023-05-24T12:05:43.191Z,55.43
2023-05-24T12:08:15.858Z,55.64
2023-05-24T12:10:44.067Z,56.58
2023-05-24T12:13:25.780Z,57.22
2023-05-24T12:15:57.134Z,56.90
2023-05-24T12:18:26.836Z,56.78
2023-05-24T12:21:11.668Z,55.06
2023-05-24T12:23:41.592Z,54.16
2023-05-24T12:26:09.739Z,54.01
2023-05-24T12:28:39.170Z,53.95
2023-05-24T12:31:07.365Z,54.76
2023-05-24T12:33:35.978Z,55.59
2023-05-24T12:36:03.605Z,55.99
2023-05-24T12:38:31.747Z,55.87
2023-05-24T12:41:12.407Z,55.26
2023-05-24T12:43:44.762Z,54.48
2023-05-24T12:46:14.397Z,54.90
2023-05-24T12:48:42.514Z,55.53
2023-05-24T12:51:12.864Z,55.97
2023-05-24T12:53:46.767Z,55.91
2023-05-24T12:56:14.322Z,56.00
2023-05-24T12:58:46.048Z,55.84
2023-05-24T13:01:14.911Z,56.25
2023-05-24T13:03:43.307Z,56.35
2023-05-24T13:06:11.668Z,56.16
2023-05-24T13:08:40.979Z,56.59
2023-05-24T13:11:16.702Z,57.70
2023-05-24T13:13:46.356Z,58.65
2023-05-24T13:16:17.031Z,59.60
2023-05-24T13:18:51.258Z,60.73
2023-05-24T13:21:22.227Z,61.51
2023-05-24T13:23:49.952Z,62.07
2023-05-24T13:26:20.504Z,62.52
2023-05-24T13:29:15.043Z,62.29
2023-05-24T13:31:38.512Z,61.23
2023-05-24T13:34:09.542Z,59.82
2023-05-24T13:36:38.429Z,58.87
2023-05-24T13:41:41.921Z,58.97
2023-05-24T13:44:10.429Z,59.20
2023-05-24T13:46:39.677Z,59.09
2023-05-24T13:49:07.743Z,58.16
2023-05-24T13:51:35.816Z,57.35
2023-05-24T13:54:05.041Z,57.86
2023-05-24T13:56:33.349Z,57.18
2023-05-24T13:59:02.642Z,56.90
2023-05-24T14:01:34.962Z,56.46
2023-05-24T14:04:06.383Z,56.92
2023-05-24T14:06:35.743Z,58.25
2023-05-24T14:09:08.552Z,59.48
2023-05-24T14:11:36.924Z,60.72
2023-05-24T14:16:37.351Z,62.30
2023-05-24T14:19:05.377Z,62.45
2023-05-24T14:21:33.136Z,61.78
2023-05-24T14:24:04.634Z,59.89
2023-05-24T14:26:38.882Z,59.22
2023-05-24T14:29:09.979Z,58.86
2023-05-24T14:31:42.571Z,59.74
2023-05-24T14:34:13.617Z,61.11
2023-05-24T14:36:43.297Z,61.35
2023-05-24T14:39:11.281Z,60.97
2023-05-24T14:41:39.239Z,60.91
2023-05-24T14:44:06.939Z,61.21
2023-05-24T14:46:34.706Z,61.37
2023-05-24T14:49:02.863Z,61.13
2023-05-24T14:51:30.683Z,61.21
2023-05-24T14:53:58.603Z,61.60
2023-05-24T14:56:26.306Z,62.28
2023-05-24T14:58:55.156Z,63.23
2023-05-24T15:01:23.449Z,63.98
2023-05-24T15:03:51.630Z,63.84
2023-05-24T15:06:19.897Z,63.84
2023-05-24T15:08:47.540Z,64.05
2023-05-24T15:11:19.832Z,64.11
2023-05-24T15:13:48.658Z,63.90
2023-05-24T15:16:16.286Z,63.72
2023-05-24T15:18:43.904Z,63.72
2023-05-24T15:21:11.876Z,63.85
2023-05-24T15:23:40.052Z,63.36
2023-05-24T15:26:08.413Z,63.17
2023-05-24T15:28:35.977Z,63.71
2023-05-24T15:31:03.926Z,64.49
2023-05-24T15:33:32.910Z,65.05
2023-05-24T15:36:00.811Z,65.81
2023-05-24T15:38:28.515Z,66.32
2023-05-24T15:40:56.260Z,66.21
2023-05-24T15:43:24.034Z,66.15
2023-05-24T15:45:51.666Z,65.93
2023-05-24T15:48:19.473Z,65.71
2023-05-24T15:51:32.003Z,65.40
2023-05-24T15:53:34.852Z,65.13
2023-05-24T15:56:02.424Z,64.61
2023-05-24T15:58:30.022Z,63.93
2023-05-24T16:00:57.736Z,63.51
2023-05-24T16:03:25.434Z,63.33
2023-05-24T16:05:53.138Z,63.04
2023-05-24T16:08:27.879Z,62.26
2023-05-24T16:10:56.060Z,61.46
2023-05-24T16:13:23.813Z,60.31
2023-05-24T16:15:54.353Z,58.27
2023-05-24T16:18:23.495Z,55.20
2023-05-24T16:20:52.030Z,52.84
2023-05-24T16:23:23.246Z,51.72
2023-05-24T16:25:54.424Z,51.23
2023-05-24T16:28:24.385Z,51.30
2023-05-24T16:30:58.845Z,51.49
2023-05-24T16:33:26.302Z,51.62
2023-05-24T16:36:02.925Z,51.70
2023-05-24T16:38:31.351Z,51.30
2023-05-24T16:40:59.326Z,51.19
2023-05-24T16:43:26.906Z,50.94
2023-05-24T16:45:55.632Z,50.64
2023-05-24T16:48:28.715Z,50.66
2023-05-24T16:50:56.963Z,50.79
2023-05-24T16:53:26.302Z,50.55
2023-05-24T16:55:55.930Z,50.47
2023-05-24T16:58:24.787Z,50.55
2023-05-24T17:00:54.647Z,50.86
2023-05-24T17:03:28.686Z,51.22
2023-05-24T17:06:00.106Z,51.62
2023-05-24T17:08:30.267Z,52.09
2023-05-24T17:10:59.213Z,52.43
2023-05-24T17:13:29.690Z,52.91
2023-05-24T17:15:57.991Z,53.32
2023-05-24T17:18:29.663Z,53.73
2023-05-24T17:21:01.600Z,54.15
2023-05-24T17:23:31.180Z,54.57
2023-05-24T17:25:59.112Z,54.95
2023-05-24T17:28:29.755Z,55.28
2023-05-24T17:30:58.496Z,55.63
2023-05-24T17:33:28.055Z,55.99
2023-05-24T17:35:56.882Z,56.24
2023-05-24T17:38:25.261Z,56.39
2023-05-24T17:40:59.713Z,56.65
2023-05-24T17:43:35.462Z,56.89
2023-05-24T17:46:07.045Z,57.12
2023-05-24T17:48:43.056Z,57.55
2023-05-24T17:51:10.837Z,57.84
2023-05-24T17:53:38.579Z,58.02
2023-05-24T17:56:06.501Z,58.38
2023-05-24T17:58:37.510Z,58.76
2023-05-24T18:03:46.648Z,59.36
2023-05-24T18:06:14.321Z,59.77
2023-05-24T18:08:44.823Z,59.95
2023-05-24T18:11:13.889Z,60.24
2023-05-24T18:13:42.798Z,60.51
2023-05-24T18:16:11.168Z,60.90
2023-05-24T18:18:39.041Z,61.47
2023-05-24T18:21:06.748Z,61.90
2023-05-24T18:23:37.894Z,62.32
2023-05-24T18:26:09.597Z,62.70
2023-05-24T18:28:37.846Z,63.10
2023-05-24T18:31:08.781Z,63.35
2023-05-24T18:33:37.962Z,63.73
2023-05-24T18:36:06.396Z,64.26
2023-05-24T18:38:33.911Z,64.54
2023-05-24T18:41:04.146Z,65.02
2023-05-24T18:43:33.606Z,65.36
2023-05-24T18:46:01.670Z,65.56
2023-05-24T18:48:29.291Z,65.73
2023-05-24T18:50:56.800Z,65.84
2023-05-24T18:53:25.801Z,65.93
2023-05-24T18:55:53.343Z,66.17
2023-05-24T18:58:20.810Z,66.33
2023-05-24T19:00:48.370Z,66.61
2023-05-24T19:03:16.124Z,66.97
2023-05-24T19:05:44.302Z,67.18
2023-05-24T19:08:12.206Z,67.37
2023-05-24T19:10:39.833Z,67.53
2023-05-24T19:13:07.415Z,67.61
2023-05-24T19:15:35.458Z,67.64
2023-05-24T19:18:03.560Z,67.79
2023-05-24T19:20:31.318Z,68.29
2023-05-24T19:22:59.237Z,68.34
2023-05-24T19:25:26.943Z,68.59
2023-05-24T19:28:00.009Z,68.71
2023-05-24T19:30:28.313Z,68.76
2023-05-24T19:32:56.014Z,68.98
2023-05-24T19:35:23.581Z,68.99
2023-05-24T19:37:52.464Z,69.07
2023-05-24T19:40:20.599Z,69.37
2023-05-24T19:42:48.132Z,69.28
2023-05-24T19:45:16.580Z,69.21
2023-05-24T19:47:45.589Z,69.44
2023-05-24T19:50:13.064Z,69.67
2023-05-24T19:52:40.771Z,70.01
2023-05-24T19:55:08.764Z,70.22
2023-05-24T19:57:36.291Z,70.33
2023-05-24T20:00:04.859Z,70.25
2023-05-24T20:02:38.835Z,70.59
2023-05-24T20:05:07.177Z,70.80
2023-05-24T20:07:34.745Z,70.99
2023-05-24T20:10:05.334Z,71.06
2023-05-24T20:12:34.759Z,71.32
2023-05-24T20:15:02.373Z,71.64
2023-05-24T20:17:29.919Z,71.69
2023-05-24T20:19:57.512Z,71.93
2023-05-24T20:22:25.232Z,72.07
2023-05-24T20:24:52.750Z,72.15
2023-05-24T20:27:20.245Z,72.33
2023-05-24T20:29:47.969Z,72.49
2023-05-24T20:32:16.532Z,72.80
2023-05-24T20:34:44.217Z,73.07
2023-05-24T20:37:11.703Z,73.48
2023-05-24T20:39:39.258Z,73.90
2023-05-24T20:42:08.444Z,74.27
2023-05-24T20:44:35.916Z,74.28
2023-05-24T20:47:03.462Z,74.37
2023-05-24T20:49:31.008Z,74.36
2023-05-24T20:51:58.596Z,74.67
2023-05-24T20:54:26.167Z,75.03
2023-05-24T20:56:53.848Z,75.27
2023-05-24T20:59:21.350Z,75.41
2023-05-24T21:01:48.806Z,75.33
2023-05-24T21:04:16.475Z,75.33
2023-05-24T21:06:44.069Z,75.44
2023-05-24T21:09:11.649Z,75.52
2023-05-24T21:11:39.526Z,75.62
2023-05-24T21:14:06.993Z,75.73
2023-05-24T21:16:34.712Z,76.12
2023-05-24T21:19:02.300Z,76.19
2023-05-24T21:21:29.809Z,76.70
2023-05-24T21:23:58.114Z,76.83
2023-05-24T21:26:26.723Z,77.28
2023-05-24T21:28:54.241Z,77.45
2023-05-24T21:31:21.768Z,77.72
2023-05-24T21:33:49.271Z,78.07
2023-05-24T21:36:18.708Z,78.28
2023-05-24T21:38:46.240Z,78.26
2023-05-24T21:41:13.784Z,78.46
2023-05-24T21:43:41.948Z,78.65
2023-05-24T21:46:09.456Z,78.96
2023-05-24T21:48:36.900Z,79.15
2023-05-24T21:51:04.347Z,79.67
2023-05-24T21:53:31.767Z,80.08
2023-05-24T21:55:59.215Z,80.53
2023-05-24T21:58:26.707Z,80.89
2023-05-24T22:00:54.286Z,81.41
2023-05-24T22:03:21.900Z,81.81
2023-05-24T22:05:49.396Z,82.27
2023-05-24T22:08:16.929Z,82.26
2023-05-24T22:10:44.378Z,82.42
2023-05-24T22:13:12.309Z,82.40
2023-05-24T22:15:39.814Z,82.60
2023-05-24T22:18:07.405Z,83.02
2023-05-24T22:20:36.860Z,83.18
2023-05-24T22:23:04.512Z,83.31
2023-05-24T22:25:32.093Z,83.65
2023-05-24T22:27:59.569Z,83.79
2023-05-24T22:30:27.162Z,83.81
2023-05-24T22:32:56.076Z,83.58
2023-05-24T22:35:23.549Z,83.66
2023-05-24T22:37:51.141Z,83.55
2023-05-24T22:40:18.615Z,83.89
2023-05-24T22:42:46.174Z,84.41
2023-05-24T22:45:14.110Z,84.28
2023-05-24T22:47:41.714Z,84.31
2023-05-24T22:50:09.619Z,84.09
2023-05-24T22:52:42.701Z,83.91
2023-05-24T22:55:11.292Z,83.41
2023-05-24T22:57:38.812Z,83.39
2023-05-24T23:00:08.241Z,83.41
2023-05-24T23:02:36.551Z,83.83
2023-05-24T23:05:04.831Z,83.87
2023-05-24T23:07:32.738Z,84.21
2023-05-24T23:10:00.272Z,84.63
2023-05-24T23:12:27.757Z,85.02
2023-05-24T23:14:58.500Z,85.00
2023-05-24T23:17:26.531Z,85.05
2023-05-24T23:19:54.156Z,85.04
2023-05-24T23:22:23.937Z,85.31
2023-05-24T23:24:51.941Z,85.79
2023-05-24T23:27:19.511Z,85.85
2023-05-24T23:29:47.030Z,85.85
2023-05-24T23:32:14.681Z,86.36
2023-05-24T23:34:42.173Z,86.41
2023-05-24T23:37:09.700Z,86.49
2023-05-24T23:39:38.201Z,86.94
2023-05-24T23:42:06.855Z,87.23
2023-05-24T23:44:34.384Z,87.68
2023-05-24T23:47:02.180Z,87.98
2023-05-24T23:49:29.901Z,88.34
2023-05-24T23:51:57.486Z,88.52
2023-05-24T23:54:25.066Z,89.28
2023-05-24T23:56:52.504Z,89.50
2023-05-24T23:59:19.986Z,89.04
